BGR weather

Bangor International Airport
Bangor, Maine, United States

Public forecast

Using degrees Fahrenheit for public forecast. Weather courtesy of forecast.io.

METAR (pilot weather report)

Retrieved 2018/07/15 21:53 UTC (36 minutes ago):

KBGR 152153Z 18007KT 10SM FEW030 SCT110 BKN200 23/18 A2994 RMK AO2 SLP135 T02280183

TAF (pilot weather forecast)

Retrieved 2018/07/15 18:22 UTC (4 hours ago):

TAF KBGR 151720Z 1518/1618 20005KT P6SM BKN020 FM160300 00000KT 2SM BR SCT003 FM160600 00000KT 1SM BR BKN003 FM161300 00000KT P6SM SCT010 FM161400 21004KT P6SM FEW250